Time;durP1;ratioP1;P1;durP2;ratioP2;P2;SDS_P1;SDS_P2;PMS_P1;PMS_P2;Temp;Humidity;BMP_temperature;BMP_pressure;BME280_temperature;BME280_humidity;BME280_pressure;Samples;Min_cycle;Max_cycle;Signal;HPM_P1;HPM_P2
2022/02/19 00:00:23;;;;;;;3.07;1.20;;;7.30;99.90;;;;;;5002117;28;20259;-66
2022/02/19 00:02:49;;;;;;;2.60;1.17;;;7.30;99.90;;;;;;4996220;28;20635;-66
2022/02/19 00:05:15;;;;;;;5.07;1.43;;;7.30;99.90;;;;;;4996734;28;20450;-66
2022/02/19 00:07:40;;;;;;;7.20;1.70;;;7.30;99.90;;;;;;4994368;28;20447;-65
2022/02/19 00:10:06;;;;;;;8.13;1.30;;;7.30;99.90;;;;;;4994325;28;20266;-65
2022/02/19 00:12:32;;;;;;;7.80;1.47;;;7.30;99.90;;;;;;4994756;28;20184;-65
2022/02/19 00:14:57;;;;;;;4.43;2.00;;;7.30;99.90;;;;;;4994318;28;20191;-66
2022/02/19 00:17:23;;;;;;;3.80;1.37;;;7.30;99.90;;;;;;4993861;28;20286;-66
2022/02/19 00:19:49;;;;;;;5.27;1.47;;;7.30;99.90;;;;;;4994662;28;20653;-66
2022/02/19 00:22:16;;;;;;;3.97;2.47;;;7.30;99.90;;;;;;4994434;28;20282;-66
2022/02/19 00:24:41;;;;;;;6.03;1.40;;;7.20;99.90;;;;;;4994310;28;20513;-66
2022/02/19 00:27:07;;;;;;;6.33;1.30;;;7.20;99.90;;;;;;4995776;28;20438;-66
2022/02/19 00:29:33;;;;;;;4.43;1.50;;;7.20;99.90;;;;;;4994250;28;20206;-65
2022/02/19 00:31:58;;;;;;;11.27;2.03;;;7.20;99.90;;;;;;4994100;28;20211;-66
2022/02/19 00:34:24;;;;;;;5.93;2.07;;;7.20;99.90;;;;;;4993168;28;20192;-66
2022/02/19 00:36:50;;;;;;;13.10;1.93;;;7.20;99.90;;;;;;4993850;28;20226;-65
2022/02/19 00:39:16;;;;;;;6.03;2.00;;;7.10;99.90;;;;;;4994056;28;20431;-66
2022/02/19 00:41:41;;;;;;;6.47;1.80;;;7.20;99.90;;;;;;4994337;28;20176;-66
2022/02/19 00:44:07;;;;;;;12.77;2.90;;;7.20;99.90;;;;;;4994004;28;20199;-66
2022/02/19 00:46:36;;;;;;;4.60;1.47;;;7.20;99.90;;;;;;4993369;28;20184;-66
2022/02/19 00:49:03;;;;;;;5.83;1.70;;;7.20;99.90;;;;;;4993925;28;20489;-66
2022/02/19 00:51:30;;;;;;;8.37;2.17;;;7.20;99.90;;;;;;4993859;28;20476;-66
2022/02/19 00:53:56;;;;;;;3.57;1.80;;;7.10;99.90;;;;;;4999162;28;20548;-66
2022/02/19 00:56:21;;;;;;;8.47;2.13;;;7.10;99.90;;;;;;5000082;28;20967;-65
2022/02/19 00:58:47;;;;;;;5.87;1.70;;;7.20;99.90;;;;;;5002768;28;20435;-65
2022/02/19 01:01:13;;;;;;;9.17;1.70;;;7.20;99.90;;;;;;4993843;28;20241;-65
2022/02/19 01:03:38;;;;;;;8.13;1.77;;;7.20;99.90;;;;;;4999246;28;20214;-66
2022/02/19 01:06:04;;;;;;;6.83;2.50;;;7.20;99.90;;;;;;4995383;28;20442;-66
2022/02/19 01:08:29;;;;;;;8.13;2.10;;;7.20;99.90;;;;;;5000271;28;20179;-65
2022/02/19 01:10:55;;;;;;;5.70;2.17;;;7.20;99.90;;;;;;4994687;28;20618;-65
2022/02/19 01:13:20;;;;;;;8.67;1.83;;;7.20;99.90;;;;;;4993631;28;20207;-65
2022/02/19 01:15:46;;;;;;;4.17;1.50;;;7.20;99.90;;;;;;4999202;28;20178;-66
2022/02/19 01:18:12;;;;;;;3.23;1.53;;;7.20;99.90;;;;;;4993436;28;20180;-65
2022/02/19 01:20:41;;;;;;;6.13;1.73;;;7.20;99.90;;;;;;4994702;28;20183;-65
2022/02/19 01:23:07;;;;;;;2.93;1.47;;;7.20;99.90;;;;;;4995577;28;20752;-65
2022/02/19 01:25:33;;;;;;;6.47;1.80;;;7.20;99.90;;;;;;4995275;28;20522;-65
2022/02/19 01:27:58;;;;;;;4.03;1.73;;;7.20;99.90;;;;;;4994735;28;20251;-65
2022/02/19 01:30:24;;;;;;;5.43;1.90;;;7.20;99.90;;;;;;4995947;28;20187;-66
2022/02/19 01:32:49;;;;;;;6.67;1.80;;;7.20;99.90;;;;;;4994997;28;20184;-66
2022/02/19 01:35:15;;;;;;;2.77;1.30;;;7.10;99.90;;;;;;4993510;28;20195;-65
2022/02/19 01:37:41;;;;;;;9.03;2.10;;;7.10;99.90;;;;;;4992750;28;20529;-66
2022/02/19 01:40:07;;;;;;;4.53;1.57;;;7.10;99.90;;;;;;4993837;28;20541;-65
2022/02/19 01:42:32;;;;;;;5.53;1.77;;;7.10;99.90;;;;;;4997415;28;20668;-65
2022/02/19 01:44:58;;;;;;;7.53;1.60;;;7.10;99.90;;;;;;5005402;28;20605;-66
2022/02/19 01:47:23;;;;;;;5.60;1.53;;;7.10;99.90;;;;;;4992673;28;20195;-66
2022/02/19 01:49:49;;;;;;;4.20;1.57;;;7.10;99.90;;;;;;4993989;28;20258;-66
2022/02/19 01:52:17;;;;;;;4.97;1.33;;;7.10;99.90;;;;;;4993395;28;20187;-66
2022/02/19 01:54:44;;;;;;;4.67;1.67;;;7.00;99.90;;;;;;4997850;28;20209;-65
2022/02/19 01:57:10;;;;;;;4.30;2.60;;;7.00;99.90;;;;;;4992191;28;20995;-66
2022/02/19 01:59:37;;;;;;;3.73;1.27;;;7.00;99.90;;;;;;4994093;28;20530;-66
2022/02/19 02:02:03;;;;;;;3.50;1.90;;;7.00;99.90;;;;;;4993763;28;20449;-66
2022/02/19 02:04:28;;;;;;;4.10;1.73;;;7.00;99.90;;;;;;4997285;28;20466;-66
2022/02/19 02:06:54;;;;;;;6.47;1.70;;;6.90;99.90;;;;;;4992171;28;20815;-66
2022/02/19 02:09:20;;;;;;;4.70;1.23;;;6.90;99.90;;;;;;4999580;28;20180;-66
2022/02/19 02:11:46;;;;;;;8.10;1.90;;;6.90;99.90;;;;;;4994255;28;20178;-66
2022/02/19 02:14:13;;;;;;;4.87;1.97;;;6.80;99.90;;;;;;4991826;28;21035;-66
2022/02/19 02:16:41;;;;;;;5.80;2.27;;;6.80;99.90;;;;;;4998865;28;20568;-66
2022/02/19 02:19:08;;;;;;;6.67;2.20;;;6.80;99.90;;;;;;4992288;28;20473;-66
2022/02/19 02:21:34;;;;;;;5.43;1.57;;;6.80;99.90;;;;;;4987257;28;20438;-66
2022/02/19 02:24:00;;;;;;;9.20;1.77;;;6.80;99.90;;;;;;5000133;28;20473;-66
2022/02/19 02:26:27;;;;;;;13.43;2.73;;;6.70;99.90;;;;;;4993015;28;20940;-66
2022/02/19 02:28:53;;;;;;;8.03;1.60;;;6.70;99.90;;;;;;4995032;28;20438;-66
2022/02/19 02:31:19;;;;;;;4.03;2.10;;;6.70;99.90;;;;;;4996214;28;20439;-66
2022/02/19 02:33:47;;;;;;;4.03;2.10;;;6.60;99.90;;;;;;4992210;28;20207;-66
2022/02/19 02:36:13;;;;;;;8.43;2.07;;;6.60;99.90;;;;;;4991977;28;20800;-66
2022/02/19 02:38:39;;;;;;;8.30;2.03;;;6.60;99.90;;;;;;4997272;28;20446;-66
2022/02/19 02:41:05;;;;;;;4.93;1.50;;;6.60;99.90;;;;;;4994551;28;20449;-66
2022/02/19 02:43:30;;;;;;;9.60;2.40;;;6.60;99.90;;;;;;4993106;28;20219;-66
2022/02/19 02:45:56;;;;;;;7.40;2.27;;;6.60;99.90;;;;;;4995016;28;20261;-66
2022/02/19 02:48:21;;;;;;;3.47;1.43;;;6.60;99.90;;;;;;4994552;28;20190;-66
2022/02/19 02:50:47;;;;;;;5.93;2.00;;;6.60;99.90;;;;;;4992175;28;20261;-66
2022/02/19 02:53:13;;;;;;;5.00;2.40;;;6.60;99.90;;;;;;4995720;28;20902;-66
2022/02/19 02:55:38;;;;;;;3.67;1.63;;;6.50;99.90;;;;;;4992160;28;20230;-65
2022/02/19 02:58:04;;;;;;;8.27;1.80;;;6.50;99.90;;;;;;4995074;28;20211;-65
2022/02/19 03:00:30;;;;;;;9.10;1.63;;;6.60;99.90;;;;;;4993104;28;20187;-65
2022/02/19 03:02:55;;;;;;;8.80;2.30;;;6.60;99.90;;;;;;4997620;28;20195;-65
2022/02/19 03:05:21;;;;;;;7.00;1.90;;;6.60;99.90;;;;;;4993151;28;20548;-65
2022/02/19 03:07:47;;;;;;;8.33;2.43;;;6.50;99.90;;;;;;4998308;28;20199;-65
2022/02/19 03:10:16;;;;;;;6.43;2.10;;;6.50;99.90;;;;;;4991769;28;20557;-65
2022/02/19 03:12:43;;;;;;;8.57;2.10;;;6.50;99.90;;;;;;4992930;28;20179;-65
2022/02/19 03:15:09;;;;;;;6.33;1.87;;;6.50;99.90;;;;;;4991715;28;20554;-65
2022/02/19 03:17:36;;;;;;;4.97;1.80;;;6.50;99.90;;;;;;4992062;28;20438;-65
2022/02/19 03:20:03;;;;;;;4.57;1.70;;;6.40;99.90;;;;;;4993610;28;20477;-66
2022/02/19 03:22:29;;;;;;;3.97;1.80;;;6.40;99.90;;;;;;4996964;28;20459;-65
2022/02/19 03:24:54;;;;;;;9.57;2.47;;;6.40;99.90;;;;;;4992937;28;20450;-66
2022/02/19 03:27:22;;;;;;;5.10;4.27;;;6.40;99.90;;;;;;5003141;28;20654;-66
2022/02/19 03:29:47;;;;;;;4.10;1.97;;;6.40;99.90;;;;;;4991546;28;20658;-66
2022/02/19 03:32:13;;;;;;;5.77;1.67;;;6.40;99.90;;;;;;4991841;28;20442;-66
2022/02/19 03:34:39;;;;;;;6.87;2.00;;;6.40;99.90;;;;;;4996303;28;20207;-65
2022/02/19 03:37:04;;;;;;;8.73;1.57;;;6.40;99.90;;;;;;5003583;28;20191;-65
2022/02/19 03:39:30;;;;;;;8.07;1.77;;;6.40;99.90;;;;;;4991938;28;20174;-65
2022/02/19 03:41:55;;;;;;;3.17;1.67;;;6.30;99.90;;;;;;4998593;28;20756;-66
2022/02/19 03:44:21;;;;;;;4.67;1.80;;;6.40;99.90;;;;;;4991745;28;20204;-66
2022/02/19 03:46:47;;;;;;;10.30;2.10;;;6.40;99.90;;;;;;4993815;28;20188;-66
2022/02/19 03:49:12;;;;;;;16.20;4.50;;;6.30;99.90;;;;;;4991640;28;20172;-65
2022/02/19 03:51:38;;;;;;;6.07;1.70;;;6.30;99.90;;;;;;4994169;28;20186;-65
2022/02/19 03:54:05;;;;;;;8.13;2.50;;;6.30;99.90;;;;;;4995778;28;20210;-66
2022/02/19 03:56:31;;;;;;;5.37;1.73;;;6.30;99.90;;;;;;4994527;28;20442;-66
2022/02/19 03:58:57;;;;;;;5.53;1.60;;;6.30;99.90;;;;;;5001864;28;20533;-66
2022/02/19 04:01:22;;;;;;;3.53;1.60;;;6.20;99.90;;;;;;4995877;28;20537;-66
2022/02/19 04:03:48;;;;;;;6.87;3.00;;;6.20;99.90;;;;;;4996483;28;20208;-66
2022/02/19 04:06:13;;;;;;;10.33;1.73;;;6.10;99.90;;;;;;4995720;28;20174;-65
2022/02/19 04:08:39;;;;;;;3.90;1.60;;;6.10;99.90;;;;;;4995191;28;20207;-66
2022/02/19 04:11:05;;;;;;;3.50;1.90;;;6.10;99.90;;;;;;4994653;28;20641;-66
2022/02/19 04:13:30;;;;;;;5.70;1.50;;;6.00;99.90;;;;;;5001412;28;20295;-66
2022/02/19 04:15:56;;;;;;;5.00;2.87;;;6.00;99.90;;;;;;5000024;28;20218;-66
2022/02/19 04:18:21;;;;;;;7.20;1.17;;;6.00;99.90;;;;;;4997906;28;20183;-66
2022/02/19 04:20:47;;;;;;;5.43;1.83;;;6.00;99.90;;;;;;4994547;28;20241;-65
2022/02/19 04:23:12;;;;;;;5.70;1.57;;;5.90;99.90;;;;;;4996147;28;20585;-65
2022/02/19 04:25:38;;;;;;;7.90;1.63;;;5.90;99.90;;;;;;5001193;28;20229;-66
2022/02/19 04:28:07;;;;;;;8.33;1.53;;;5.80;99.90;;;;;;4994475;28;20183;-66
2022/02/19 04:30:33;;;;;;;7.20;1.83;;;5.80;99.90;;;;;;4998052;28;20176;-66
2022/02/19 04:33:00;;;;;;;4.90;1.57;;;5.80;99.90;;;;;;4995758;28;20900;-65
2022/02/19 04:35:27;;;;;;;14.90;2.20;;;5.70;99.90;;;;;;4994175;28;20936;-65
2022/02/19 04:37:53;;;;;;;5.50;1.50;;;5.70;99.90;;;;;;4994192;28;20513;-66
2022/02/19 04:40:18;;;;;;;6.50;2.00;;;5.60;99.90;;;;;;5000665;28;20521;-66
2022/02/19 04:42:44;;;;;;;4.77;1.10;;;5.60;99.90;;;;;;4997903;28;20199;-65
2022/02/19 04:45:11;;;;;;;3.07;1.80;;;5.60;99.90;;;;;;4999049;28;20631;-66
2022/02/19 04:47:36;;;;;;;4.07;2.03;;;5.50;99.90;;;;;;4994077;28;20238;-66
2022/02/19 04:50:04;;;;;;;6.00;2.33;;;5.50;99.90;;;;;;5001160;28;20438;-66
2022/02/19 04:52:30;;;;;;;8.60;1.57;;;5.40;99.90;;;;;;4993990;28;20234;-65
2022/02/19 04:54:56;;;;;;;6.10;1.20;;;5.40;99.90;;;;;;4995121;28;21013;-66
2022/02/19 04:57:21;;;;;;;5.93;1.83;;;5.40;99.90;;;;;;5008137;28;20435;-66
2022/02/19 04:59:47;;;;;;;4.70;2.40;;;5.40;99.90;;;;;;4999712;28;20583;-66
2022/02/19 05:02:12;;;;;;;1.87;1.03;;;5.30;99.90;;;;;;4995013;28;20183;-66
2022/02/19 05:04:38;;;;;;;3.27;1.30;;;5.30;99.90;;;;;;4993745;28;20195;-65
2022/02/19 05:07:04;;;;;;;8.20;1.93;;;5.30;99.90;;;;;;4993326;28;20579;-65
2022/02/19 05:09:29;;;;;;;9.40;2.00;;;5.20;99.90;;;;;;4997069;28;20176;-66
2022/02/19 05:11:55;;;;;;;8.30;2.30;;;5.20;99.90;;;;;;4993767;28;20188;-65
2022/02/19 05:14:20;;;;;;;7.40;1.93;;;5.20;99.90;;;;;;5004657;28;20198;-65
2022/02/19 05:16:46;;;;;;;6.97;1.60;;;5.20;99.90;;;;;;4996966;28;20314;-65
2022/02/19 05:19:11;;;;;;;4.07;1.57;;;5.20;99.90;;;;;;5000298;28;20187;-66
2022/02/19 05:21:37;;;;;;;2.97;1.80;;;5.20;99.90;;;;;;4994044;28;20215;-66
2022/02/19 05:24:03;;;;;;;4.17;1.53;;;5.10;99.90;;;;;;4995479;28;20219;-66
2022/02/19 05:26:28;;;;;;;4.67;1.50;;;5.10;99.90;;;;;;4998747;28;20229;-66
2022/02/19 05:28:54;;;;;;;5.33;1.53;;;5.10;99.90;;;;;;4995829;28;20439;-66
2022/02/19 05:31:19;;;;;;;8.17;1.33;;;5.10;99.90;;;;;;5007531;28;20187;-66
2022/02/19 05:33:45;;;;;;;5.23;2.10;;;5.10;99.90;;;;;;4994673;28;20204;-66
2022/02/19 05:36:10;;;;;;;6.00;1.43;;;5.10;99.90;;;;;;4992985;28;20188;-66
2022/02/19 05:38:37;;;;;;;4.77;1.70;;;5.10;99.90;;;;;;4997677;28;20198;-66
2022/02/19 05:41:02;;;;;;;6.57;1.67;;;5.00;99.90;;;;;;4994020;28;20194;-66
2022/02/19 05:43:28;;;;;;;5.40;1.53;;;5.00;99.90;;;;;;4993007;28;20471;-66
2022/02/19 05:45:53;;;;;;;4.03;1.70;;;5.00;99.90;;;;;;4994194;28;20225;-65
2022/02/19 05:48:19;;;;;;;5.80;1.43;;;5.00;99.90;;;;;;4993086;28;20195;-67
2022/02/19 05:50:45;;;;;;;6.37;1.77;;;5.10;99.90;;;;;;4994390;28;20547;-66
2022/02/19 05:53:12;;;;;;;2.93;1.50;;;5.10;99.90;;;;;;4992585;28;20207;-66
2022/02/19 05:55:37;;;;;;;5.07;1.33;;;5.00;99.90;;;;;;5003910;28;20449;-66
2022/02/19 05:58:03;;;;;;;3.63;1.20;;;5.00;99.90;;;;;;5000856;28;20788;-66
2022/02/19 06:00:29;;;;;;;8.70;1.90;;;5.00;99.90;;;;;;4996785;28;20641;-66
2022/02/19 06:02:55;;;;;;;8.97;2.00;;;5.00;99.90;;;;;;4993887;28;21012;-66
2022/02/19 06:05:20;;;;;;;4.00;1.30;;;5.00;99.90;;;;;;4993578;28;20692;-65
2022/02/19 06:07:46;;;;;;;3.90;1.60;;;5.00;99.90;;;;;;4992775;28;20265;-66
2022/02/19 06:10:11;;;;;;;3.17;1.20;;;4.90;99.90;;;;;;4997524;28;20188;-65
2022/02/19 06:12:37;;;;;;;13.53;3.30;;;4.90;99.90;;;;;;4998431;28;20190;-65
2022/02/19 06:15:03;;;;;;;8.60;1.50;;;4.90;99.90;;;;;;4991952;28;20223;-66
2022/02/19 06:17:28;;;;;;;6.73;2.17;;;4.90;99.90;;;;;;4998313;28;20185;-65
2022/02/19 06:19:54;;;;;;;7.10;1.37;;;4.80;99.90;;;;;;4992633;28;20187;-65
2022/02/19 06:22:20;;;;;;;8.40;2.10;;;4.80;99.90;;;;;;4999750;28;20465;-65
2022/02/19 06:24:46;;;;;;;9.37;2.10;;;4.80;99.90;;;;;;5002583;28;20202;-65
2022/02/19 06:27:11;;;;;;;3.70;1.83;;;4.80;99.90;;;;;;5007824;28;20508;-65
2022/02/19 06:29:37;;;;;;;3.97;1.53;;;4.80;99.90;;;;;;4997688;28;20241;-65
2022/02/19 06:32:03;;;;;;;10.10;1.60;;;4.70;99.90;;;;;;4996286;28;20277;-64
2022/02/19 06:34:28;;;;;;;7.70;1.60;;;4.70;99.90;;;;;;4996893;28;20195;-65
2022/02/19 06:36:54;;;;;;;7.60;2.07;;;4.70;99.90;;;;;;4995467;28;20460;-65
2022/02/19 06:39:19;;;;;;;8.70;1.97;;;4.70;99.90;;;;;;4994128;28;20168;-65
2022/02/19 06:41:45;;;;;;;5.23;1.60;;;4.70;99.90;;;;;;4997140;28;20180;-65
2022/02/19 06:44:10;;;;;;;4.23;1.33;;;4.80;99.90;;;;;;4999787;28;20301;-65
2022/02/19 06:46:36;;;;;;;10.23;2.00;;;4.80;99.90;;;;;;5000570;28;20305;-65
2022/02/19 06:49:02;;;;;;;4.87;1.50;;;4.80;99.90;;;;;;4992748;28;20645;-66
2022/02/19 06:51:27;;;;;;;5.33;2.00;;;4.80;99.90;;;;;;4994348;28;20175;-66
2022/02/19 06:53:56;;;;;;;4.37;1.43;;;4.90;99.90;;;;;;5002112;28;20466;-65
2022/02/19 06:56:23;;;;;;;9.13;1.60;;;4.90;99.90;;;;;;4991680;28;20693;-65
2022/02/19 06:58:50;;;;;;;6.77;1.80;;;4.90;99.90;;;;;;4991601;28;20440;-65
2022/02/19 07:01:15;;;;;;;5.83;2.20;;;4.90;99.90;;;;;;4991929;28;20443;-64
2022/02/19 07:03:41;;;;;;;5.93;1.43;;;5.00;99.90;;;;;;4991678;28;20524;-65
2022/02/19 07:06:06;;;;;;;6.33;1.50;;;4.90;99.90;;;;;;4991404;28;20182;-65
2022/02/19 07:08:32;;;;;;;10.27;2.20;;;5.00;99.90;;;;;;4994820;28;20654;-65
2022/02/19 07:10:58;;;;;;;6.87;1.90;;;5.30;99.90;;;;;;4991952;28;20176;-65
2022/02/19 07:13:23;;;;;;;6.17;2.17;;;5.40;99.90;;;;;;4991727;28;20204;-66
2022/02/19 07:15:49;;;;;;;3.90;1.70;;;5.70;99.90;;;;;;4991802;28;20183;-65
2022/02/19 07:18:14;;;;;;;5.80;1.47;;;5.90;99.90;;;;;;4991547;28;20196;-65
2022/02/19 07:20:40;;;;;;;5.30;1.47;;;6.00;99.90;;;;;;4991430;28;20183;-65
2022/02/19 07:23:06;;;;;;;2.73;1.57;;;6.10;99.90;;;;;;4990746;28;20203;-66
2022/02/19 07:25:31;;;;;;;6.60;1.67;;;6.20;99.90;;;;;;4990817;28;20187;-65
2022/02/19 07:27:57;;;;;;;6.90;1.93;;;6.30;99.90;;;;;;4992807;28;20445;-66
2022/02/19 07:30:23;;;;;;;4.00;1.27;;;6.40;99.90;;;;;;4995241;28;20254;-65
2022/02/19 07:32:51;;;;;;;7.70;1.60;;;6.50;99.90;;;;;;5002195;28;20552;-65
2022/02/19 07:35:17;;;;;;;4.70;2.00;;;6.80;99.90;;;;;;4996221;28;20253;-65
2022/02/19 07:37:43;;;;;;;7.90;2.17;;;6.90;99.90;;;;;;4997715;28;20521;-64
2022/02/19 07:40:09;;;;;;;5.40;1.63;;;7.20;99.90;;;;;;5000028;28;20176;-65
2022/02/19 07:42:35;;;;;;;5.23;1.70;;;7.30;99.90;;;;;;4995463;28;20674;-65
2022/02/19 07:45:02;;;;;;;3.63;2.13;;;7.40;99.90;;;;;;4994713;28;21045;-65
2022/02/19 07:47:30;;;;;;;7.10;2.33;;;7.30;99.90;;;;;;4995155;28;20442;-65
2022/02/19 07:58:22;;;;;;;8.20;2.13;;;8.40;99.90;;;;;;4992408;28;20943;-65
2022/02/19 08:00:52;;;;;;;7.77;1.93;;;8.80;99.10;;;;;;4994924;28;20509;-64
2022/02/19 08:03:20;;;;;;;7.40;1.70;;;8.50;99.20;;;;;;4994418;28;20463;-65
2022/02/19 08:05:46;;;;;;;6.40;1.93;;;8.50;98.90;;;;;;4994359;28;20453;-64
2022/02/19 08:08:12;;;;;;;5.77;2.57;;;8.30;99.00;;;;;;4994891;28;20442;-64
2022/02/19 08:10:38;;;;;;;10.47;4.70;;;8.40;98.60;;;;;;4994721;28;20704;-64
2022/02/19 08:13:07;;;;;;;6.47;1.90;;;8.40;99.00;;;;;;4994480;28;20630;-65
2022/02/19 08:15:34;;;;;;;2.43;1.77;;;8.50;98.50;;;;;;4995506;28;20437;-65
2022/02/19 08:18:00;;;;;;;5.40;1.77;;;8.30;98.50;;;;;;4994406;28;20458;-64
2022/02/19 08:20:26;;;;;;;8.27;2.30;;;8.60;98.60;;;;;;4997660;28;20497;-65
2022/02/19 08:22:51;;;;;;;4.60;1.50;;;8.90;98.20;;;;;;4994019;28;20510;-65
2022/02/19 08:25:17;;;;;;;6.33;1.93;;;8.90;98.00;;;;;;4998079;28;20192;-65
2022/02/19 08:27:42;;;;;;;4.20;1.77;;;9.10;97.60;;;;;;4994523;28;20175;-65
2022/02/19 08:30:09;;;;;;;4.50;2.13;;;10.00;97.30;;;;;;4994172;28;20302;-65
2022/02/19 08:32:34;;;;;;;8.97;2.90;;;10.80;95.30;;;;;;4994484;28;20180;-65
2022/02/19 08:35:00;;;;;;;3.80;1.90;;;11.10;94.40;;;;;;5000391;28;20454;-65
2022/02/19 08:37:26;;;;;;;5.40;2.10;;;10.80;93.50;;;;;;5000010;28;20649;-65
2022/02/19 08:39:51;;;;;;;4.77;2.10;;;11.60;93.00;;;;;;5007045;28;20472;-66
2022/02/19 08:42:17;;;;;;;7.87;2.30;;;11.40;91.80;;;;;;4994096;28;20205;-67
2022/02/19 08:44:43;;;;;;;4.00;1.90;;;11.80;91.60;;;;;;4994327;28;20188;-68
2022/02/19 08:47:09;;;;;;;5.17;1.90;;;12.10;90.10;;;;;;4993720;28;20546;-66
2022/02/19 08:49:34;;;;;;;6.70;1.80;;;12.00;90.20;;;;;;4993481;28;20270;-65
2022/02/19 08:52:01;;;;;;;5.50;2.00;;;12.30;88.50;;;;;;4993987;28;20186;-65
2022/02/19 08:54:26;;;;;;;5.07;2.03;;;12.60;86.10;;;;;;4994150;28;20199;-65
2022/02/19 08:56:52;;;;;;;8.30;2.67;;;12.20;84.80;;;;;;4993271;28;20489;-65
2022/02/19 08:59:18;;;;;;;6.53;2.13;;;12.00;85.90;;;;;;4993769;28;20171;-65
2022/02/19 09:01:44;;;;;;;4.13;2.00;;;11.90;85.50;;;;;;4994145;28;20835;-65
2022/02/19 09:04:10;;;;;;;8.07;2.47;;;12.00;84.90;;;;;;4993658;28;20557;-65
2022/02/19 09:06:36;;;;;;;4.43;2.10;;;12.30;82.90;;;;;;4993657;28;20175;-65
2022/02/19 09:09:04;;;;;;;5.90;2.43;;;12.60;82.80;;;;;;4993979;28;20794;-65
2022/02/19 09:11:29;;;;;;;3.47;1.73;;;13.10;79.60;;;;;;4996506;28;22298;-65
2022/02/19 09:13:55;;;;;;;4.53;1.97;;;13.90;77.90;;;;;;4993303;28;20457;-66
2022/02/19 09:16:21;;;;;;;3.73;2.10;;;14.40;75.60;;;;;;4992528;28;20198;-66
2022/02/19 09:18:47;;;;;;;4.27;2.03;;;14.90;73.80;;;;;;4992406;28;20234;-66
2022/02/19 09:21:12;;;;;;;3.73;2.13;;;15.00;70.60;;;;;;4993120;28;20466;-66
2022/02/19 09:23:38;;;;;;;6.33;3.03;;;15.00;69.20;;;;;;4993348;28;20207;-66
2022/02/19 09:26:03;;;;;;;4.17;2.80;;;15.80;67.30;;;;;;4993280;28;20176;-66
2022/02/19 09:28:29;;;;;;;7.20;2.23;;;17.60;65.80;;;;;;4993005;28;20214;-66
2022/02/19 09:30:56;;;;;;;5.17;2.50;;;18.30;59.40;;;;;;4993590;28;20182;-65
2022/02/19 09:33:22;;;;;;;6.40;2.20;;;16.30;59.50;;;;;;4993139;28;20241;-65
2022/02/19 09:35:47;;;;;;;6.37;2.00;;;15.80;61.70;;;;;;4992992;28;20446;-66
2022/02/19 09:38:13;;;;;;;6.97;2.17;;;15.00;63.50;;;;;;4993165;28;20179;-65
2022/02/19 09:40:40;;;;;;;4.20;2.17;;;15.10;63.30;;;;;;4993437;28;20262;-66
2022/02/19 09:43:05;;;;;;;5.23;1.83;;;15.70;61.90;;;;;;4992663;28;20192;-65
2022/02/19 09:45:31;;;;;;;3.73;1.90;;;16.50;62.70;;;;;;4992852;28;20485;-65
2022/02/19 09:47:58;;;;;;;3.57;1.70;;;16.80;59.50;;;;;;4992798;28;20279;-65
2022/02/19 09:50:27;;;;;;;4.97;2.00;;;16.40;57.80;;;;;;4992322;28;20179;-66
2022/02/19 09:52:53;;;;;;;4.90;2.30;;;16.80;57.00;;;;;;4992888;28;20446;-66
2022/02/19 09:55:19;;;;;;;4.30;2.33;;;16.70;58.00;;;;;;4992344;28;20455;-65
2022/02/19 09:57:44;;;;;;;7.63;2.50;;;16.90;57.40;;;;;;4992857;28;20439;-66
2022/02/19 10:00:10;;;;;;;5.80;3.00;;;18.10;55.70;;;;;;4992361;28;20687;-66
2022/02/19 10:02:36;;;;;;;4.27;2.00;;;18.20;54.30;;;;;;4993927;28;20253;-65
2022/02/19 10:05:16;;;;;;;6.10;2.87;;;18.40;54.60;;;;;;4992562;28;20223;-66
2022/02/19 10:07:43;;;;;;;5.00;2.67;;;18.00;53.70;;;;;;4993904;28;20251;-66
2022/02/19 10:10:23;;;;;;;4.40;2.60;;;18.60;53.00;;;;;;5001472;28;20442;-66
2022/02/19 10:12:49;;;;;;;5.53;3.20;;;18.50;52.00;;;;;;4995842;28;20461;-66
2022/02/19 10:15:14;;;;;;;5.07;2.50;;;18.20;53.00;;;;;;4992181;28;20459;-65
2022/02/19 10:17:40;;;;;;;4.90;2.83;;;17.80;52.30;;;;;;4993840;28;20179;-66
2022/02/19 10:20:07;;;;;;;6.93;2.07;;;18.10;53.20;;;;;;4992541;28;20194;-65
2022/02/19 10:22:34;;;;;;;9.23;3.00;;;18.20;52.20;;;;;;4994382;28;20202;-66
2022/02/19 10:25:01;;;;;;;4.30;2.10;;;20.70;50.20;;;;;;4991964;28;20459;-66
2022/02/19 10:27:44;;;;;;;3.23;1.97;;;23.10;45.80;;;;;;4992331;28;20940;-66
2022/02/19 10:30:12;;;;;;;5.10;2.00;;;23.20;42.00;;;;;;4994301;28;20446;-66
2022/02/19 10:33:19;;;;;;;6.40;1.80;;;22.10;42.00;;;;;;4992549;28;20928;-66
2022/02/19 10:35:46;;;;;;;7.20;2.00;;;19.90;44.50;;;;;;4979867;28;20445;-66
2022/02/19 10:38:14;;;;;;;6.10;1.90;;;19.30;45.70;;;;;;4992327;28;20435;-65
2022/02/19 10:41:10;;;;;;;4.17;3.00;;;18.40;46.60;;;;;;4992344;28;20446;-66
2022/02/19 10:43:37;;;;;;;3.80;1.80;;;19.50;46.10;;;;;;4992127;28;20466;-65
2022/02/19 10:46:04;;;;;;;7.53;2.07;;;18.50;46.30;;;;;;4991976;28;20438;-65
2022/02/19 10:48:31;;;;;;;3.60;2.17;;;19.00;46.90;;;;;;4992068;28;20450;-65
2022/02/19 10:51:15;;;;;;;8.37;1.97;;;19.90;45.70;;;;;;4992207;28;20801;-65
2022/02/19 10:53:43;;;;;;;2.27;1.77;;;21.10;43.70;;;;;;4991172;28;20462;-66
2022/02/19 10:56:17;;;;;;;4.13;3.07;;;20.90;43.70;;;;;;4991785;28;20489;-66
2022/02/19 10:59:02;;;;;;;4.27;1.90;;;20.20;43.30;;;;;;4992016;28;20959;-66
2022/02/19 11:01:28;;;;;;;6.37;1.77;;;20.10;42.30;;;;;;4992906;28;20529;-65
2022/02/19 11:03:54;;;;;;;4.43;2.30;;;19.20;42.90;;;;;;4995966;28;20848;-65
2022/02/19 11:06:21;;;;;;;4.60;2.20;;;18.80;44.30;;;;;;4995552;28;20517;-66
2022/02/19 11:08:47;;;;;;;6.60;4.27;;;18.90;44.80;;;;;;4995802;28;20187;-65
2022/02/19 11:11:12;;;;;;;4.03;2.37;;;18.70;44.50;;;;;;4995673;28;20525;-66
2022/02/19 11:13:39;;;;;;;5.70;2.47;;;20.20;43.00;;;;;;4995755;28;20207;-66
2022/02/19 11:16:06;;;;;;;1.67;1.47;;;20.90;41.10;;;;;;4995594;28;20188;-66
2022/02/19 11:18:35;;;;;;;3.13;1.83;;;20.80;40.20;;;;;;4995767;28;20533;-66
2022/02/19 11:21:03;;;;;;;7.50;2.97;;;19.60;41.70;;;;;;4995696;28;20816;-66
2022/02/19 11:23:30;;;;;;;3.43;1.50;;;19.10;42.10;;;;;;4995363;28;20461;-66
2022/02/19 11:25:58;;;;;;;4.40;2.23;;;20.90;41.70;;;;;;4995436;28;20443;-66
2022/02/19 11:28:27;;;;;;;3.53;1.60;;;21.60;40.40;;;;;;4995644;28;20436;-66
2022/02/19 11:30:55;;;;;;;5.53;2.03;;;20.50;40.60;;;;;;4995413;28;20439;-66
2022/02/19 11:33:22;;;;;;;2.53;2.00;;;20.30;41.30;;;;;;4995374;28;20835;-66
2022/02/19 11:35:48;;;;;;;4.43;2.30;;;19.70;41.30;;;;;;4995193;28;20434;-66
2022/02/19 11:38:28;;;;;;;2.53;1.73;;;19.80;42.00;;;;;;4995318;28;20442;-66
2022/02/19 11:41:09;;;;;;;4.47;1.87;;;20.90;40.80;;;;;;4995344;28;20824;-65
2022/02/19 11:43:48;;;;;;;3.97;2.10;;;19.80;40.80;;;;;;4995004;28;20474;-65
2022/02/19 11:46:13;;;;;;;4.83;1.50;;;18.00;42.00;;;;;;4994682;28;20488;-65
2022/02/19 11:48:44;;;;;;;5.30;2.83;;;16.00;44.80;;;;;;4995054;28;20470;-65
2022/02/19 11:51:09;;;;;;;8.00;1.80;;;16.30;45.60;;;;;;4995217;28;20538;-65
2022/02/19 11:53:35;;;;;;;3.57;1.90;;;15.10;45.70;;;;;;4995061;28;20549;-65
2022/02/19 11:56:01;;;;;;;2.10;1.90;;;15.20;47.00;;;;;;5011553;28;20175;-65
2022/02/19 11:58:26;;;;;;;2.90;1.73;;;15.80;46.20;;;;;;5010926;28;20180;-65
2022/02/19 12:00:57;;;;;;;2.60;1.50;;;16.80;45.80;;;;;;4995203;28;20191;-66
2022/02/19 12:03:28;;;;;;;2.80;1.60;;;19.60;42.80;;;;;;4994817;28;20207;-66
2022/02/19 12:06:19;;;;;;;3.23;1.53;;;18.40;42.60;;;;;;4994597;28;20446;-65
2022/02/19 12:08:48;;;;;;;3.53;1.60;;;17.30;44.50;;;;;;4994528;28;20469;-65
2022/02/19 12:11:14;;;;;;;4.77;2.90;;;16.20;45.50;;;;;;4994796;28;20431;-65
2022/02/19 12:13:54;;;;;;;3.07;2.07;;;15.40;47.30;;;;;;4994000;28;20565;-65
2022/02/19 12:16:34;;;;;;;2.20;1.83;;;16.00;47.20;;;;;;4994441;28;20511;-65
2022/02/19 12:19:02;;;;;;;3.63;2.77;;;18.50;44.60;;;;;;4994328;28;20434;-66
2022/02/19 12:21:34;;;;;;;2.50;1.83;;;18.30;42.00;;;;;;4979373;28;20438;-67
2022/02/19 12:24:12;;;;;;;5.10;2.20;;;15.50;44.10;;;;;;4994459;28;20470;-65
2022/02/19 12:26:56;;;;;;;5.30;1.60;;;13.70;47.60;;;;;;4994097;28;20434;-65
2022/02/19 12:29:24;;;;;;;2.50;1.43;;;14.30;47.70;;;;;;4994442;28;20445;-65
2022/02/19 12:32:06;;;;;;;2.90;1.60;;;13.80;47.50;;;;;;4994186;28;20518;-65
2022/02/19 12:34:38;;;;;;;5.50;3.00;;;13.20;49.20;;;;;;4994437;28;20478;-65
2022/02/19 12:37:05;;;;;;;4.07;1.50;;;13.10;49.20;;;;;;4994109;28;20439;-66
2022/02/19 12:39:35;;;;;;;4.33;1.50;;;13.90;48.50;;;;;;4994363;28;20438;-65
2022/02/19 12:42:00;;;;;;;2.93;1.90;;;13.10;49.00;;;;;;4994243;28;21039;-65
2022/02/19 12:44:28;;;;;;;5.13;2.03;;;12.40;50.70;;;;;;4993701;28;20545;-66
2022/02/19 12:46:55;;;;;;;2.30;1.37;;;12.10;51.50;;;;;;4993996;28;20230;-66
2022/02/19 12:49:22;;;;;;;2.93;2.03;;;11.70;52.10;;;;;;4993856;28;20431;-65
2022/02/19 12:51:58;;;;;;;2.70;1.27;;;11.30;52.70;;;;;;4994032;28;21137;-66
2022/02/19 12:54:40;;;;;;;6.30;1.70;;;10.80;53.60;;;;;;4984903;28;21226;-66
2022/02/19 12:57:07;;;;;;;3.37;1.90;;;10.80;54.70;;;;;;4993636;28;20521;-66
2022/02/19 12:59:35;;;;;;;4.00;1.83;;;10.80;55.00;;;;;;4993899;28;20514;-65